Time;durP1;ratioP1;P1;durP2;ratioP2;P2;SDS_P1;SDS_P2;PMS_P1;PMS_P2;Temp;Humidity;BMP_temperature;BMP_pressure;BME280_temperature;BME280_humidity;BME280_pressure;Samples;Min_cycle;Max_cycle;Signal;HPM_P1;HPM_P2
2022/08/05 00:01:42;;;;;;;1.23;1.02;;;26.30;54.40;;;;;;4941232;29;20074;-82
2022/08/05 00:04:07;;;;;;;1.08;0.90;;;26.30;54.50;;;;;;4958647;29;20464;-83
2022/08/05 00:06:33;;;;;;;0.80;0.80;;;26.20;54.40;;;;;;4941077;29;20028;-82
2022/08/05 00:09:00;;;;;;;1.40;0.98;;;26.20;54.40;;;;;;4958133;29;20028;-82
2022/08/05 00:11:26;;;;;;;1.52;1.05;;;26.10;54.40;;;;;;4958414;29;20031;-83
2022/08/05 00:13:52;;;;;;;1.80;1.00;;;26.10;54.50;;;;;;4925142;29;20062;-82
2022/08/05 00:16:18;;;;;;;2.70;0.93;;;26.10;54.60;;;;;;4958173;29;20027;-83
2022/08/05 00:18:47;;;;;;;1.50;1.10;;;26.00;54.50;;;;;;4941188;29;20027;-82
2022/08/05 00:21:15;;;;;;;1.60;1.10;;;26.00;54.60;;;;;;4910333;29;20035;-82
2022/08/05 00:23:42;;;;;;;1.40;1.02;;;26.00;54.70;;;;;;4958090;29;20130;-82
2022/08/05 00:26:08;;;;;;;0.90;0.90;;;26.00;54.70;;;;;;4958170;29;20525;-83
2022/08/05 00:28:34;;;;;;;1.25;1.00;;;26.00;54.70;;;;;;4940466;29;20032;-83
2022/08/05 00:31:00;;;;;;;1.85;1.10;;;25.90;54.70;;;;;;4924552;29;20503;-83
2022/08/05 00:33:26;;;;;;;1.33;0.98;;;25.90;54.80;;;;;;4940498;29;20043;-84
2022/08/05 00:35:52;;;;;;;1.40;0.98;;;25.80;54.80;;;;;;4924629;29;20392;-83
2022/08/05 00:38:17;;;;;;;2.33;1.00;;;25.80;54.90;;;;;;4940277;29;20034;-83
2022/08/05 00:40:52;;;;;;;1.58;1.10;;;25.80;54.90;;;;;;4940576;29;20031;-84
2022/08/05 00:43:18;;;;;;;1.30;1.10;;;25.70;55.00;;;;;;4940195;29;20038;-82
2022/08/05 00:45:44;;;;;;;1.88;1.10;;;25.70;55.00;;;;;;4924791;29;20126;-83
2022/08/05 00:48:16;;;;;;;2.58;1.10;;;25.70;55.00;;;;;;4940364;29;20027;-82
2022/08/05 00:50:44;;;;;;;1.30;1.05;;;25.60;55.00;;;;;;4940572;29;20031;-84
2022/08/05 00:53:10;;;;;;;2.75;1.10;;;25.60;55.00;;;;;;4957487;29;20031;-82
2022/08/05 00:55:37;;;;;;;1.77;1.00;;;25.60;55.10;;;;;;4957636;29;20027;-82
2022/08/05 00:58:03;;;;;;;1.42;1.30;;;25.60;55.10;;;;;;4924280;29;20035;-83
2022/08/05 01:00:30;;;;;;;1.60;1.10;;;25.50;55.10;;;;;;4940207;29;20031;-83
2022/08/05 01:02:57;;;;;;;1.05;0.95;;;25.50;55.10;;;;;;4940006;29;20035;-83
2022/08/05 01:05:23;;;;;;;1.63;0.90;;;25.50;55.20;;;;;;4939886;29;20130;-83
2022/08/05 01:07:49;;;;;;;2.40;1.00;;;25.50;55.20;;;;;;4940154;29;20407;-83
2022/08/05 01:10:19;;;;;;;2.03;1.08;;;25.40;55.20;;;;;;4923494;29;20174;-85
2022/08/05 01:12:54;;;;;;;1.20;1.10;;;25.40;55.90;;;;;;4939777;29;20047;-83
2022/08/05 01:15:23;;;;;;;1.60;0.93;;;25.30;55.20;;;;;;4956802;29;20046;-82
2022/08/05 01:17:53;;;;;;;1.17;0.98;;;25.30;55.20;;;;;;4957263;29;20125;-83
2022/08/05 01:20:22;;;;;;;2.15;1.05;;;25.30;55.20;;;;;;4924301;29;20087;-84
2022/08/05 01:23:22;;;;;;;1.48;1.20;;;25.30;55.30;;;;;;4940138;29;20031;-83
2022/08/05 01:26:12;;;;;;;1.13;1.00;;;25.20;55.40;;;;;;4908676;29;20067;-84
2022/08/05 01:28:55;;;;;;;1.15;1.05;;;25.20;55.40;;;;;;4939679;29;20038;-83
2022/08/05 01:31:34;;;;;;;1.30;1.20;;;25.20;55.50;;;;;;4924796;29;20035;-83
2022/08/05 01:34:14;;;;;;;2.28;1.23;;;25.10;55.50;;;;;;4939269;29;20468;-84
2022/08/05 01:36:45;;;;;;;1.13;1.00;;;25.10;55.50;;;;;;4957047;29;20050;-82
2022/08/05 01:39:13;;;;;;;1.35;1.00;;;25.10;55.50;;;;;;4924284;29;20123;-84
2022/08/05 01:41:41;;;;;;;1.17;1.08;;;25.10;55.60;;;;;;4923335;29;20489;-85
2022/08/05 01:44:09;;;;;;;1.35;0.90;;;25.00;55.60;;;;;;4923261;29;20047;-83
2022/08/05 01:46:35;;;;;;;2.55;1.40;;;25.00;55.60;;;;;;4939311;29;20027;-84
2022/08/05 01:49:02;;;;;;;1.70;1.20;;;25.00;55.60;;;;;;4939290;29;20503;-85
2022/08/05 01:51:31;;;;;;;1.38;1.10;;;25.00;55.70;;;;;;4939408;29;20517;-84
2022/08/05 01:53:59;;;;;;;2.55;1.30;;;24.90;55.70;;;;;;4938265;29;20038;-83
2022/08/05 01:56:36;;;;;;;1.17;0.85;;;24.90;55.70;;;;;;4923901;29;20031;-83
2022/08/05 01:59:06;;;;;;;1.23;1.00;;;24.80;55.90;;;;;;4939428;29;20082;-87
2022/08/05 02:01:34;;;;;;;2.05;1.10;;;24.80;55.70;;;;;;4922968;29;20035;-84
2022/08/05 02:04:01;;;;;;;1.48;1.08;;;24.80;55.70;;;;;;4922913;29;20039;-83
2022/08/05 02:06:27;;;;;;;1.20;1.00;;;24.80;55.80;;;;;;4923760;29;20102;-83
2022/08/05 02:08:53;;;;;;;1.40;1.08;;;24.70;55.70;;;;;;4923081;29;20027;-84
2022/08/05 02:11:21;;;;;;;2.70;1.25;;;24.70;55.80;;;;;;4923778;29;20137;-84
2022/08/05 02:13:59;;;;;;;1.40;1.00;;;24.70;55.90;;;;;;4922904;29;20492;-87
2022/08/05 02:16:35;;;;;;;1.73;1.20;;;24.70;56.00;;;;;;4939287;29;20484;-83
2022/08/05 02:19:27;;;;;;;1.70;1.30;;;24.60;55.90;;;;;;4957282;29;20039;-86
2022/08/05 02:22:16;;;;;;;1.40;1.30;;;24.60;56.00;;;;;;4932579;29;20067;-83
2022/08/05 02:24:48;;;;;;;1.77;1.30;;;24.60;56.00;;;;;;4966435;29;20031;-84
2022/08/05 02:27:17;;;;;;;2.38;1.40;;;24.60;56.00;;;;;;4943807;29;20353;-83
2022/08/05 02:29:45;;;;;;;1.60;1.20;;;24.60;56.10;;;;;;4940213;29;20027;-84
2022/08/05 02:32:14;;;;;;;1.92;1.20;;;24.50;56.10;;;;;;4923540;29;20042;-83
2022/08/05 02:34:40;;;;;;;1.33;1.23;;;24.50;56.10;;;;;;4923287;29;20033;-84
2022/08/05 02:37:09;;;;;;;2.72;1.25;;;24.40;56.10;;;;;;4955391;29;20505;-83
2022/08/05 02:39:37;;;;;;;2.13;1.20;;;24.50;56.20;;;;;;4922298;29;20469;-87
2022/08/05 02:42:03;;;;;;;1.20;1.10;;;24.40;56.20;;;;;;4938543;29;20046;-83
2022/08/05 02:44:32;;;;;;;1.58;1.20;;;24.40;56.20;;;;;;4938702;29;20590;-83
2022/08/05 02:46:59;;;;;;;1.60;1.17;;;24.40;56.20;;;;;;4938509;29;20031;-85
2022/08/05 02:49:28;;;;;;;1.40;1.20;;;24.40;56.30;;;;;;4922747;29;20030;-83
2022/08/05 02:51:56;;;;;;;1.52;1.20;;;24.40;56.30;;;;;;4938160;29;20106;-84
2022/08/05 02:54:23;;;;;;;2.42;1.38;;;24.30;56.30;;;;;;4922782;29;20034;-83
2022/08/05 02:56:49;;;;;;;1.27;1.10;;;24.30;56.40;;;;;;4939087;29;20036;-85
2022/08/05 02:59:17;;;;;;;1.20;1.10;;;24.30;56.40;;;;;;4955103;29;20031;-83
2022/08/05 03:01:44;;;;;;;1.83;1.20;;;24.20;56.50;;;;;;4955300;29;20086;-83
2022/08/05 03:04:13;;;;;;;1.98;1.20;;;24.20;56.50;;;;;;4938308;28;20035;-83
2022/08/05 03:06:41;;;;;;;1.55;1.20;;;24.20;56.50;;;;;;4941838;29;20122;-83
2022/08/05 03:09:10;;;;;;;1.40;1.30;;;24.20;56.50;;;;;;4926185;29;20071;-86
2022/08/05 03:11:35;;;;;;;1.80;1.60;;;24.20;56.60;;;;;;4958984;29;20024;-83
2022/08/05 03:14:01;;;;;;;1.50;1.00;;;24.20;56.60;;;;;;4926148;29;20055;-88
2022/08/05 03:16:27;;;;;;;1.00;1.00;;;24.20;56.60;;;;;;4927338;29;20024;-84
2022/08/05 03:18:53;;;;;;;1.15;1.08;;;24.10;56.60;;;;;;4942464;29;20122;-89
2022/08/05 03:21:18;;;;;;;1.25;1.08;;;24.10;56.60;;;;;;4942089;29;20523;-83
2022/08/05 03:23:45;;;;;;;1.75;1.20;;;24.10;56.70;;;;;;4926740;29;20399;-83
2022/08/05 03:26:11;;;;;;;1.25;1.17;;;24.10;56.70;;;;;;4926332;29;20031;-81
2022/08/05 03:28:37;;;;;;;1.30;1.20;;;24.10;56.80;;;;;;4926200;29;20435;-87
2022/08/05 03:31:03;;;;;;;1.88;1.20;;;24.00;56.80;;;;;;4958804;29;20023;-84
2022/08/05 03:33:30;;;;;;;1.60;1.10;;;24.00;56.80;;;;;;4926284;29;20094;-83
2022/08/05 03:35:58;;;;;;;1.23;1.13;;;24.00;56.90;;;;;;4941756;29;20027;-83
2022/08/05 03:38:25;;;;;;;1.50;1.40;;;24.00;56.90;;;;;;4925865;29;20035;-83
2022/08/05 03:40:54;;;;;;;2.13;1.27;;;24.00;56.90;;;;;;4941526;29;20113;-84
2022/08/05 03:43:23;;;;;;;1.95;1.38;;;24.00;56.90;;;;;;4942484;29;20468;-82
2022/08/05 03:45:50;;;;;;;2.03;1.25;;;23.90;56.90;;;;;;4941782;29;20035;-83
2022/08/05 03:48:16;;;;;;;1.02;0.98;;;23.90;57.00;;;;;;4941820;29;20095;-84
2022/08/05 03:50:44;;;;;;;1.35;1.20;;;23.80;56.90;;;;;;4958553;29;20039;-83
2022/08/05 03:53:13;;;;;;;1.65;1.10;;;23.80;57.00;;;;;;4941365;29;20082;-82
2022/08/05 03:55:47;;;;;;;1.85;1.20;;;23.90;57.10;;;;;;4925635;29;20027;-84
2022/08/05 03:58:16;;;;;;;1.33;1.08;;;23.80;57.10;;;;;;4958681;29;20035;-85
2022/08/05 04:00:44;;;;;;;1.80;1.20;;;23.80;57.10;;;;;;4957873;29;20083;-84
2022/08/05 04:03:12;;;;;;;1.58;1.20;;;23.80;57.10;;;;;;4924929;29;20126;-83
2022/08/05 04:05:39;;;;;;;2.28;1.40;;;23.80;57.20;;;;;;4940989;29;20051;-83
2022/08/05 04:08:11;;;;;;;1.98;1.13;;;23.70;57.10;;;;;;4941306;29;20027;-82
2022/08/05 04:10:38;;;;;;;1.88;1.15;;;23.80;57.30;;;;;;4940547;29;20034;-83
2022/08/05 04:13:07;;;;;;;1.33;1.15;;;23.70;57.20;;;;;;4941412;29;20051;-84
2022/08/05 04:15:33;;;;;;;2.25;1.48;;;23.70;57.30;;;;;;4940741;29;20502;-82
2022/08/05 04:18:02;;;;;;;1.58;1.20;;;23.70;57.20;;;;;;4940481;29;20054;-84
2022/08/05 04:20:28;;;;;;;1.52;1.20;;;23.70;57.30;;;;;;4940622;29;20075;-83
2022/08/05 04:22:54;;;;;;;1.30;1.20;;;23.60;57.20;;;;;;4940849;29;20065;-84
2022/08/05 04:25:20;;;;;;;1.15;1.00;;;23.70;57.30;;;;;;4957618;29;20459;-83
2022/08/05 04:27:45;;;;;;;2.28;1.20;;;23.70;57.40;;;;;;4940518;29;20527;-86
2022/08/05 04:30:11;;;;;;;1.45;1.25;;;23.60;57.40;;;;;;4940038;29;20471;-84
2022/08/05 04:32:37;;;;;;;1.52;1.10;;;23.60;57.40;;;;;;4940366;29;20388;-84
2022/08/05 04:35:03;;;;;;;1.35;1.25;;;23.60;57.50;;;;;;4941068;29;20053;-84
2022/08/05 04:37:31;;;;;;;1.52;1.30;;;23.60;57.50;;;;;;4940619;29;20113;-82
2022/08/05 04:39:57;;;;;;;1.65;1.20;;;23.60;57.50;;;;;;4924964;29;20042;-82
2022/08/05 04:42:23;;;;;;;1.55;1.10;;;23.60;57.50;;;;;;4957157;29;20023;-88
2022/08/05 04:44:49;;;;;;;1.55;1.25;;;23.50;57.50;;;;;;4925209;29;20126;-84
2022/08/05 04:47:15;;;;;;;1.52;1.30;;;23.50;57.60;;;;;;4941339;29;20082;-84
2022/08/05 04:49:41;;;;;;;1.83;1.25;;;23.50;57.60;;;;;;4940551;29;20042;-87
2022/08/05 04:52:06;;;;;;;1.83;1.30;;;23.50;57.60;;;;;;4957659;29;20031;-86
2022/08/05 04:54:32;;;;;;;1.38;1.00;;;23.50;57.70;;;;;;4940738;29;20479;-85
2022/08/05 04:56:58;;;;;;;1.52;1.20;;;23.50;57.70;;;;;;4909078;29;20032;-85
2022/08/05 04:59:24;;;;;;;1.30;1.20;;;23.50;57.70;;;;;;4940244;29;20023;-87
2022/08/05 05:01:51;;;;;;;2.35;1.30;;;23.50;57.70;;;;;;4940159;29;20039;-88
2022/08/05 05:04:17;;;;;;;1.17;1.08;;;23.40;57.70;;;;;;4940314;29;20042;-89
2022/08/05 05:06:42;;;;;;;1.63;0.98;;;23.40;57.80;;;;;;4908862;29;20031;-88
2022/08/05 05:09:12;;;;;;;1.92;1.15;;;23.40;57.80;;;;;;4924854;29;20034;-88
2022/08/05 05:11:37;;;;;;;1.08;0.98;;;23.40;57.90;;;;;;4940055;29;20028;-84
2022/08/05 05:14:03;;;;;;;1.42;1.30;;;23.40;57.80;;;;;;4921231;29;20068;-85
2022/08/05 05:16:29;;;;;;;1.90;1.10;;;23.40;57.90;;;;;;4920594;29;20047;-84
2022/08/05 05:18:55;;;;;;;2.63;1.50;;;23.40;58.00;;;;;;4921536;29;20035;-85
2022/08/05 05:21:21;;;;;;;1.45;1.00;;;23.30;58.00;;;;;;4920812;29;20035;-86
2022/08/05 05:23:47;;;;;;;1.80;0.90;;;23.30;58.00;;;;;;4921343;29;20047;-85
2022/08/05 05:26:13;;;;;;;2.28;1.08;;;23.40;58.10;;;;;;4938533;29;20377;-85
2022/08/05 05:28:38;;;;;;;1.83;1.30;;;23.30;58.10;;;;;;4920136;29;20023;-82
2022/08/05 05:31:04;;;;;;;2.15;1.30;;;23.30;58.10;;;;;;4904801;29;20067;-84
2022/08/05 05:33:30;;;;;;;1.02;1.02;;;23.30;58.20;;;;;;4904587;29;20043;-84
2022/08/05 05:35:56;;;;;;;2.55;1.20;;;23.30;58.20;;;;;;4920824;29;20023;-85
2022/08/05 05:38:22;;;;;;;1.35;1.10;;;23.30;58.30;;;;;;4935967;29;20028;-83
2022/08/05 05:40:47;;;;;;;1.67;1.30;;;23.30;58.30;;;;;;4920739;29;20473;-83
2022/08/05 05:43:13;;;;;;;1.20;1.10;;;23.20;58.30;;;;;;4920616;29;20123;-86
2022/08/05 05:45:39;;;;;;;0.98;0.90;;;23.20;58.40;;;;;;4920142;29;20187;-83
2022/08/05 05:48:06;;;;;;;1.50;1.10;;;23.20;58.40;;;;;;4904597;29;20035;-93
2022/08/05 05:50:32;;;;;;;2.22;1.20;;;23.20;58.40;;;;;;4920562;29;20020;-87
2022/08/05 05:52:58;;;;;;;1.20;1.10;;;23.20;58.50;;;;;;4920279;29;20510;-85
2022/08/05 05:55:24;;;;;;;2.00;1.20;;;23.20;58.50;;;;;;4919860;29;20024;-85
2022/08/05 05:57:49;;;;;;;1.67;1.30;;;23.20;58.50;;;;;;4920112;29;20047;-85
2022/08/05 06:00:18;;;;;;;2.33;1.40;;;23.20;58.60;;;;;;4919828;29;20076;-86
2022/08/05 06:02:45;;;;;;;1.52;1.00;;;23.20;58.70;;;;;;4936880;29;20036;-86
2022/08/05 06:05:12;;;;;;;1.73;1.35;;;23.20;58.60;;;;;;4920215;29;20042;-85
2022/08/05 06:07:38;;;;;;;2.17;1.00;;;23.20;58.70;;;;;;4920385;29;20028;-83
2022/08/05 06:10:06;;;;;;;1.15;1.00;;;23.20;58.70;;;;;;4920571;29;20038;-84
2022/08/05 06:12:34;;;;;;;1.48;1.10;;;23.20;58.70;;;;;;4923266;29;20051;-86
2022/08/05 06:15:01;;;;;;;1.70;1.00;;;23.20;58.70;;;;;;4956135;29;20108;-85
2022/08/05 06:17:27;;;;;;;1.92;1.10;;;23.20;58.80;;;;;;4922776;29;20043;-84
2022/08/05 06:19:53;;;;;;;1.10;1.00;;;23.20;58.70;;;;;;4923319;29;20094;-83
2022/08/05 06:22:26;;;;;;;1.33;1.00;;;23.20;58.70;;;;;;4939518;29;20414;-87
2022/08/05 06:24:51;;;;;;;2.42;1.13;;;23.20;58.80;;;;;;4908032;29;20126;-85
2022/08/05 06:27:17;;;;;;;1.17;1.00;;;23.10;58.70;;;;;;4938627;29;20061;-85
2022/08/05 06:29:43;;;;;;;0.98;0.98;;;23.10;58.70;;;;;;4938728;29;20035;-85
2022/08/05 06:32:10;;;;;;;2.25;1.50;;;23.10;58.80;;;;;;4922224;29;20496;-83
2022/08/05 06:34:36;;;;;;;1.20;1.10;;;23.10;58.90;;;;;;4923575;29;20034;-84
2022/08/05 06:37:01;;;;;;;2.10;1.30;;;23.10;58.90;;;;;;4940372;29;20457;-84
2022/08/05 06:39:27;;;;;;;1.80;1.10;;;23.10;58.90;;;;;;4959160;28;20028;-82
2022/08/05 06:42:00;;;;;;;1.30;1.20;;;23.10;59.00;;;;;;4946492;29;20027;-84
2022/08/05 06:44:26;;;;;;;1.65;1.00;;;23.10;59.00;;;;;;4948720;29;20032;-86
2022/08/05 06:46:52;;;;;;;1.45;1.20;;;23.10;59.00;;;;;;4939673;29;20031;-84
2022/08/05 06:49:17;;;;;;;1.50;1.10;;;23.10;59.10;;;;;;4957486;29;20034;-84
2022/08/05 06:51:43;;;;;;;1.67;1.10;;;23.10;59.00;;;;;;4940695;29;20039;-84
2022/08/05 06:54:09;;;;;;;1.67;1.30;;;23.10;59.00;;;;;;4940130;29;20380;-87
2022/08/05 06:56:35;;;;;;;1.25;1.00;;;23.10;59.10;;;;;;4924055;29;20031;-84
2022/08/05 06:59:02;;;;;;;1.33;1.00;;;23.10;59.10;;;;;;4922708;29;20035;-83
2022/08/05 07:01:28;;;;;;;1.20;1.10;;;23.10;59.10;;;;;;4922464;29;20039;-82
2022/08/05 07:03:54;;;;;;;1.25;1.00;;;23.10;59.10;;;;;;4939122;29;20539;-83
2022/08/05 07:06:21;;;;;;;2.35;1.33;;;23.10;59.10;;;;;;4938987;29;20597;-83
2022/08/05 07:08:47;;;;;;;1.10;1.00;;;23.10;59.10;;;;;;4906954;29;20071;-83
2022/08/05 07:11:13;;;;;;;2.13;1.13;;;23.10;59.10;;;;;;4938332;29;20019;-84
2022/08/05 07:19:08;;;;;;;0.88;0.88;;;23.20;59.20;;;;;;4936196;29;20035;-84
2022/08/05 07:21:33;;;;;;;0.98;0.98;;;23.20;59.10;;;;;;4935246;29;20416;-84
2022/08/05 07:23:59;;;;;;;1.20;1.10;;;23.10;59.10;;;;;;4935734;29;20032;-85
2022/08/05 07:26:25;;;;;;;1.13;1.02;;;23.10;59.10;;;;;;4935550;29;20064;-84
2022/08/05 07:28:51;;;;;;;1.10;1.00;;;23.20;59.20;;;;;;4935028;29;20039;-84
2022/08/05 07:31:17;;;;;;;1.42;1.02;;;23.20;59.20;;;;;;4935078;29;20036;-85
2022/08/05 07:33:43;;;;;;;1.10;1.00;;;23.20;59.30;;;;;;4935084;29;20067;-84
2022/08/05 07:36:09;;;;;;;1.33;1.00;;;23.20;59.30;;;;;;4919079;29;20074;-83
2022/08/05 07:38:36;;;;;;;2.15;1.10;;;23.20;59.30;;;;;;4934822;29;20024;-85
2022/08/05 07:41:07;;;;;;;1.65;1.05;;;23.20;59.30;;;;;;4934999;29;20028;-86
2022/08/05 07:43:33;;;;;;;1.02;0.93;;;23.20;59.30;;;;;;4934993;29;20036;-83
2022/08/05 07:45:59;;;;;;;1.10;1.00;;;23.20;59.30;;;;;;4934722;29;20107;-84
2022/08/05 07:48:25;;;;;;;1.10;1.00;;;23.20;59.20;;;;;;4934809;29;20067;-84
2022/08/05 07:50:51;;;;;;;1.40;1.08;;;23.20;59.30;;;;;;4934828;29;20072;-85
2022/08/05 07:53:16;;;;;;;2.08;1.20;;;23.20;59.30;;;;;;4937640;29;20471;-85
2022/08/05 07:55:42;;;;;;;1.00;0.90;;;23.30;59.30;;;;;;4937965;29;20096;-84
2022/08/05 07:58:08;;;;;;;1.83;1.20;;;23.30;59.30;;;;;;4922005;29;20043;-84
2022/08/05 08:00:34;;;;;;;1.10;1.00;;;23.30;59.40;;;;;;4939067;29;20055;-84
2022/08/05 08:03:00;;;;;;;1.48;1.08;;;23.30;59.40;;;;;;4937871;29;20082;-84
2022/08/05 08:05:26;;;;;;;1.15;0.82;;;23.30;59.40;;;;;;4938182;29;20119;-83
2022/08/05 08:07:54;;;;;;;1.05;0.95;;;23.40;59.40;;;;;;4938566;29;20032;-83
2022/08/05 08:10:21;;;;;;;1.50;1.15;;;23.40;59.30;;;;;;4938017;29;20031;-84
2022/08/05 08:12:48;;;;;;;2.05;1.20;;;23.40;59.30;;;;;;4926984;29;20044;-83
2022/08/05 08:15:15;;;;;;;0.85;0.82;;;23.40;59.30;;;;;;4957978;29;20174;-84
2022/08/05 08:17:41;;;;;;;0.75;0.75;;;23.50;59.20;;;;;;4940551;29;20402;-83
2022/08/05 08:20:07;;;;;;;1.30;0.90;;;23.50;59.10;;;;;;4924954;29;20058;-84
2022/08/05 08:22:33;;;;;;;1.50;1.08;;;23.50;59.10;;;;;;4925522;29;20040;-83
2022/08/05 08:24:59;;;;;;;1.35;0.90;;;23.50;58.90;;;;;;4941379;29;20030;-84
2022/08/05 08:27:25;;;;;;;1.42;1.00;;;23.60;58.90;;;;;;4940409;29;20035;-83
2022/08/05 08:29:50;;;;;;;1.17;1.08;;;23.60;58.80;;;;;;4940626;29;20050;-84
2022/08/05 08:32:16;;;;;;;1.38;0.90;;;23.70;58.80;;;;;;4924368;29;20031;-89
2022/08/05 08:34:42;;;;;;;1.00;0.90;;;23.70;58.70;;;;;;4940667;29;20027;-85
2022/08/05 08:37:08;;;;;;;1.73;0.90;;;23.80;58.60;;;;;;4940381;29;20556;-84
2022/08/05 08:39:34;;;;;;;1.20;1.02;;;23.80;58.50;;;;;;4940077;29;20035;-82
2022/08/05 08:42:01;;;;;;;0.80;0.80;;;23.90;58.50;;;;;;4940516;29;20046;-83
2022/08/05 08:44:32;;;;;;;0.93;0.90;;;23.90;58.40;;;;;;4940130;29;20433;-85
2022/08/05 08:46:58;;;;;;;1.83;1.00;;;24.00;58.40;;;;;;4925262;29;20089;-84
2022/08/05 08:49:26;;;;;;;2.22;1.02;;;24.00;58.20;;;;;;4940665;29;20023;-83
2022/08/05 08:52:07;;;;;;;1.65;1.00;;;24.10;58.30;;;;;;4941060;29;20043;-85
2022/08/05 08:54:34;;;;;;;1.30;1.15;;;24.10;58.30;;;;;;4957313;29;20027;-80
2022/08/05 08:57:00;;;;;;;1.25;0.90;;;24.10;58.10;;;;;;4940231;29;20460;-81
2022/08/05 08:59:26;;;;;;;1.15;1.08;;;24.20;58.10;;;;;;4940050;29;20027;-80
2022/08/05 09:01:52;;;;;;;1.20;1.00;;;24.20;58.00;;;;;;4923900;29;20027;-86
2022/08/05 09:04:18;;;;;;;0.70;0.70;;;24.30;58.00;;;;;;4956535;28;20163;-82
2022/08/05 09:06:44;;;;;;;0.88;0.70;;;24.30;57.90;;;;;;4924157;29;20034;-83
2022/08/05 09:09:09;;;;;;;1.67;1.10;;;24.40;57.90;;;;;;4924435;29;20118;-82
2022/08/05 09:11:36;;;;;;;1.75;0.90;;;24.40;57.80;;;;;;4924911;29;20029;-82
2022/08/05 09:14:02;;;;;;;0.82;0.82;;;24.40;57.80;;;;;;4956768;29;20496;-84
2022/08/05 09:16:28;;;;;;;0.90;0.90;;;24.40;57.70;;;;;;4924504;29;20039;-83
2022/08/05 09:18:53;;;;;;;0.80;0.80;;;24.40;57.70;;;;;;4956787;29;20102;-80
2022/08/05 09:21:21;;;;;;;1.20;0.80;;;24.50;57.70;;;;;;4923784;29;20379;-81
2022/08/05 09:24:03;;;;;;;0.90;0.90;;;24.50;57.70;;;;;;4924063;29;20039;-84
2022/08/05 09:26:29;;;;;;;0.80;0.80;;;24.50;57.70;;;;;;4923963;29;20039;-82
2022/08/05 09:29:00;;;;;;;0.75;0.75;;;24.50;57.50;;;;;;4939474;29;20047;-80
2022/08/05 09:31:26;;;;;;;0.80;0.80;;;24.50;57.60;;;;;;4956263;29;20089;-80
2022/08/05 09:33:57;;;;;;;0.95;0.82;;;24.60;57.50;;;;;;4939256;29;20035;-83
2022/08/05 09:36:23;;;;;;;0.75;0.75;;;24.60;57.50;;;;;;4939761;29;20619;-84
2022/08/05 09:38:56;;;;;;;1.05;0.80;;;24.50;57.40;;;;;;4939559;29;20026;-84
2022/08/05 09:41:22;;;;;;;0.73;0.73;;;24.60;57.40;;;;;;4908042;29;20095;-85
2022/08/05 09:43:48;;;;;;;1.52;0.98;;;24.60;57.20;;;;;;4923781;29;20045;-84
2022/08/05 09:46:25;;;;;;;0.85;0.77;;;24.60;57.10;;;;;;4924843;29;20130;-83
2022/08/05 09:48:53;;;;;;;0.82;0.70;;;24.60;57.10;;;;;;4939327;29;20039;-84
2022/08/05 09:51:34;;;;;;;0.73;0.70;;;24.60;56.80;;;;;;4939309;29;20485;-83
2022/08/05 09:54:03;;;;;;;0.75;0.63;;;24.70;56.90;;;;;;4939375;29;20042;-85
2022/08/05 09:56:36;;;;;;;1.10;0.75;;;24.70;56.70;;;;;;4923201;29;20127;-85
2022/08/05 09:59:05;;;;;;;0.70;0.70;;;24.80;56.60;;;;;;4939638;29;20384;-85
2022/08/05 10:01:32;;;;;;;0.80;0.80;;;24.80;56.50;;;;;;4939222;29;20026;-86
2022/08/05 10:04:04;;;;;;;0.90;0.70;;;24.80;57.10;;;;;;4908524;29;20447;-84
2022/08/05 10:06:31;;;;;;;0.90;0.80;;;24.90;56.30;;;;;;4939744;29;20113;-82
2022/08/05 10:09:14;;;;;;;0.90;0.70;;;24.90;56.20;;;;;;4907391;29;20071;-84
2022/08/05 10:11:40;;;;;;;0.63;0.63;;;25.00;56.10;;;;;;4939136;29;20388;-84
2022/08/05 10:14:27;;;;;;;0.70;0.70;;;25.10;55.90;;;;;;4938354;29;20046;-83
2022/08/05 10:16:55;;;;;;;0.60;0.60;;;25.10;55.90;;;;;;4938509;29;20031;-83
2022/08/05 10:19:22;;;;;;;1.42;0.77;;;25.20;55.70;;;;;;4922912;29;20033;-83
2022/08/05 10:21:49;;;;;;;0.55;0.55;;;25.30;55.50;;;;;;4923254;29;20037;-89
2022/08/05 10:24:17;;;;;;;0.50;0.50;;;25.30;55.40;;;;;;4907278;29;20469;-84
2022/08/05 10:26:45;;;;;;;0.50;0.50;;;25.40;55.30;;;;;;4938651;29;20031;-84
2022/08/05 10:29:11;;;;;;;0.50;0.50;;;25.50;55.20;;;;;;4939725;29;20055;-83
2022/08/05 10:31:40;;;;;;;1.23;0.77;;;25.50;55.10;;;;;;4939116;29;20024;-82
2022/08/05 10:34:08;;;;;;;0.60;0.60;;;25.60;55.00;;;;;;4939553;29;20156;-84
2022/08/05 10:36:35;;;;;;;0.60;0.60;;;25.60;54.80;;;;;;4938796;29;20062;-84
2022/08/05 10:39:13;;;;;;;0.82;0.45;;;25.70;54.80;;;;;;4939379;29;20039;-84
2022/08/05 10:42:08;;;;;;;0.52;0.52;;;25.80;54.70;;;;;;4938680;29;20078;-85
2022/08/05 10:44:35;;;;;;;0.60;0.60;;;25.80;54.60;;;;;;4924827;29;20050;-84
2022/08/05 10:47:10;;;;;;;0.60;0.60;;;25.90;54.40;;;;;;4923710;29;20438;-84
2022/08/05 10:50:01;;;;;;;0.50;0.50;;;25.90;54.30;;;;;;4938482;29;20086;-82
2022/08/05 10:52:46;;;;;;;0.60;0.60;;;26.00;54.30;;;;;;4939676;29;20042;-85
2022/08/05 10:55:13;;;;;;;0.55;0.55;;;26.00;54.10;;;;;;4939604;29;20078;-87
2022/08/05 10:57:44;;;;;;;0.80;0.60;;;26.10;54.00;;;;;;4941460;29;20039;-85
2022/08/05 11:00:17;;;;;;;1.00;0.70;;;26.10;53.90;;;;;;4911810;29;20039;-86
2022/08/05 11:03:05;;;;;;;0.60;0.60;;;26.20;53.80;;;;;;4968447;29;20059;-83
2022/08/05 11:05:33;;;;;;;0.85;0.60;;;26.20;53.70;;;;;;4951857;29;20310;-85
2022/08/05 11:08:01;;;;;;;0.85;0.52;;;26.20;53.50;;;;;;4943901;29;20047;-84
2022/08/05 11:10:28;;;;;;;0.88;0.73;;;26.30;53.50;;;;;;4926722;29;20031;-89
2022/08/05 11:12:55;;;;;;;0.50;0.50;;;26.30;53.30;;;;;;4956663;29;20054;-85
2022/08/05 11:15:29;;;;;;;0.95;0.60;;;26.40;53.30;;;;;;4957400;29;20077;-87
2022/08/05 11:18:08;;;;;;;0.90;0.50;;;26.40;53.20;;;;;;4941131;29;20035;-88
2022/08/05 11:20:44;;;;;;;1.08;0.60;;;26.40;53.10;;;;;;4945381;28;20039;-84
2022/08/05 11:23:31;;;;;;;1.13;0.60;;;26.50;53.10;;;;;;4940047;29;20054;-85
2022/08/05 11:26:06;;;;;;;0.63;0.60;;;26.50;53.10;;;;;;4939869;29;20035;-86
2022/08/05 11:28:31;;;;;;;0.50;0.50;;;26.60;53.00;;;;;;4927545;28;20047;-85
2022/08/05 11:30:57;;;;;;;0.60;0.50;;;26.60;52.90;;;;;;4942138;29;20056;-83
2022/08/05 11:33:53;;;;;;;0.68;0.55;;;26.60;52.80;;;;;;4926712;28;20047;-81
2022/08/05 11:36:43;;;;;;;0.40;0.40;;;26.70;52.70;;;;;;4925014;28;20392;-83
2022/08/05 11:39:10;;;;;;;0.40;0.40;;;26.70;52.50;;;;;;4946775;29;20047;-87
2022/08/05 11:41:37;;;;;;;0.30;0.30;;;26.70;52.30;;;;;;4925927;28;20473;-83
2022/08/05 11:44:11;;;;;;;0.65;0.50;;;26.70;52.20;;;;;;4925800;29;20055;-82
2022/08/05 11:46:39;;;;;;;;;;;26.80;52.20;;;;;;4959283;28;20236;-86
2022/08/05 11:49:07;;;;;;;0.60;0.60;;;26.80;52.20;;;;;;4940981;29;19906;-83
2022/08/05 11:51:34;;;;;;;0.47;0.43;;;26.80;51.90;;;;;;4941684;29;20035;-83
2022/08/05 11:54:00;;;;;;;0.80;0.55;;;26.90;51.90;;;;;;4925572;29;20119;-82
2022/08/05 11:56:45;;;;;;;0.43;0.40;;;26.90;51.70;;;;;;4925619;28;20042;-79
2022/08/05 11:59:17;;;;;;;0.50;0.50;;;26.90;51.60;;;;;;4959015;29;20057;-81
2022/08/05 12:01:53;;;;;;;0.40;0.40;;;26.90;51.40;;;;;;4941197;29;20953;-81
2022/08/05 12:04:20;;;;;;;0.40;0.40;;;27.00;51.30;;;;;;4940707;29;20110;-81
2022/08/05 12:06:46;;;;;;;0.55;0.40;;;27.00;51.20;;;;;;4924943;29;20027;-82
2022/08/05 12:09:22;;;;;;;0.47;0.47;;;27.00;51.10;;;;;;4940492;29;20126;-83
2022/08/05 12:11:48;;;;;;;0.55;0.45;;;27.10;51.20;;;;;;4940657;29;20035;-83
2022/08/05 12:14:14;;;;;;;0.65;0.50;;;27.10;51.10;;;;;;4940561;29;20057;-82
2022/08/05 12:16:42;;;;;;;0.40;0.40;;;27.10;51.10;;;;;;4924930;29;20065;-87
2022/08/05 12:19:10;;;;;;;0.80;0.55;;;27.10;51.00;;;;;;4924999;29;20050;-82
2022/08/05 12:21:46;;;;;;;0.50;0.50;;;27.20;51.10;;;;;;4925503;29;20035;-82
2022/08/05 12:24:14;;;;;;;0.40;0.40;;;27.20;51.00;;;;;;4926549;29;20042;-84
2022/08/05 12:26:43;;;;;;;0.50;0.50;;;27.20;51.00;;;;;;4959151;29;20380;-83
2022/08/05 12:29:24;;;;;;;0.40;0.40;;;27.20;51.00;;;;;;4941620;29;20031;-82
2022/08/05 12:31:55;;;;;;;0.73;0.73;;;27.20;50.90;;;;;;4941421;29;20035;-84
2022/08/05 12:34:31;;;;;;;0.40;0.40;;;27.20;50.70;;;;;;4941430;29;20042;-80
2022/08/05 12:37:00;;;;;;;0.43;0.43;;;27.30;50.70;;;;;;4941310;28;20106;-81
2022/08/05 12:39:27;;;;;;;0.47;0.47;;;27.30;50.60;;;;;;4940865;29;20066;-81
2022/08/05 12:41:58;;;;;;;0.88;0.50;;;27.30;50.50;;;;;;4941039;29;20039;-81
2022/08/05 12:44:25;;;;;;;0.40;0.40;;;27.30;50.40;;;;;;4941201;29;20039;-80
2022/08/05 12:46:52;;;;;;;0.57;0.52;;;27.40;50.30;;;;;;4925559;29;20015;-81
2022/08/05 12:49:21;;;;;;;1.85;0.60;;;27.40;50.30;;;;;;4940874;29;20023;-82
2022/08/05 12:51:48;;;;;;;1.35;0.47;;;27.40;50.20;;;;;;4941550;29;20398;-83
2022/08/05 12:54:25;;;;;;;1.48;0.60;;;27.40;49.90;;;;;;4926039;29;20467;-82
2022/08/05 12:56:53;;;;;;;0.40;0.40;;;27.40;49.90;;;;;;4941232;29;20121;-82
2022/08/05 12:59:27;;;;;;;0.50;0.50;;;27.40;49.80;;;;;;4941265;29;20516;-83
2022/08/05 13:01:59;;;;;;;;;;;27.50;49.90;;;;;;4925852;29;20039;-81